createdAt,value
2023-02-28T00:01:31.812Z,94.10
2023-02-28T00:04:01.087Z,94.40
2023-02-28T00:06:27.793Z,94.80
2023-02-28T00:08:54.563Z,95.00
2023-02-28T00:11:21.509Z,95.40
2023-02-28T00:13:49.117Z,95.70
2023-02-28T00:16:19.212Z,95.90
2023-02-28T00:18:45.928Z,96.00
2023-02-28T00:21:12.552Z,96.10
2023-02-28T00:23:44.654Z,96.30
2023-02-28T00:26:11.716Z,96.50
2023-02-28T00:28:40.538Z,96.60
2023-02-28T00:31:07.365Z,96.70
2023-02-28T00:33:34.107Z,96.80
2023-02-28T00:36:08.920Z,96.90
2023-02-28T00:38:39.082Z,97.40
2023-02-28T00:41:06.465Z,97.20
2023-02-28T00:43:38.305Z,97.30
2023-02-28T00:46:06.125Z,97.40
2023-02-28T00:48:33.264Z,97.40
2023-02-28T00:51:00.157Z,97.50
2023-02-28T00:53:26.922Z,97.60
2023-02-28T00:55:55.993Z,97.70
2023-02-28T00:58:23.106Z,97.80
2023-02-28T01:00:50.204Z,98.00
2023-02-28T01:03:23.398Z,98.20
2023-02-28T01:05:50.181Z,98.40
2023-02-28T01:08:16.871Z,98.50
2023-02-28T01:10:43.667Z,98.70
2023-02-28T01:13:10.830Z,99.00
2023-02-28T01:15:38.836Z,99.10
2023-02-28T01:18:08.109Z,99.30
2023-02-28T01:20:38.125Z,99.40
2023-02-28T01:23:04.817Z,99.60
2023-02-28T01:25:37.764Z,99.80
2023-02-28T01:28:04.967Z,99.90
2023-02-28T01:30:33.891Z,99.90
2023-02-28T01:33:00.948Z,99.90
2023-02-28T01:35:27.574Z,99.90
2023-02-28T01:37:54.209Z,99.90
2023-02-28T01:40:21.005Z,99.90
2023-02-28T01:42:47.841Z,99.90
2023-02-28T01:45:28.151Z,99.90
2023-02-28T01:48:05.856Z,99.90
2023-02-28T01:50:37.929Z,99.90
2023-02-28T01:53:09.205Z,99.90
2023-02-28T01:55:38.659Z,99.90
2023-02-28T01:58:07.858Z,99.90
2023-02-28T02:00:34.828Z,99.90
2023-02-28T02:03:08.352Z,99.90
2023-02-28T02:05:36.948Z,99.90
2023-02-28T02:08:06.563Z,99.90
2023-02-28T02:10:41.703Z,99.90
2023-02-28T02:13:46.371Z,99.90
2023-02-28T02:16:12.951Z,99.90
2023-02-28T02:18:51.434Z,99.90
2023-02-28T02:21:36.978Z,99.90
2023-02-28T02:24:25.573Z,99.90
2023-02-28T02:27:16.978Z,99.90
2023-02-28T02:29:49.168Z,99.90
2023-02-28T02:32:21.580Z,99.90
2023-02-28T02:34:59.225Z,99.90
2023-02-28T02:37:54.166Z,99.90
2023-02-28T02:40:26.437Z,99.90
2023-02-28T02:43:15.299Z,99.90
2023-02-28T02:45:56.674Z,99.90
2023-02-28T02:48:28.643Z,99.90
2023-02-28T02:51:01.877Z,99.90
2023-02-28T02:53:52.058Z,99.90
2023-02-28T02:56:24.536Z,99.90
2023-02-28T02:58:53.976Z,99.90
2023-02-28T03:01:29.414Z,99.90
2023-02-28T03:03:59.176Z,99.90
2023-02-28T03:06:27.130Z,99.90
2023-02-28T03:08:56.191Z,99.90
2023-02-28T03:11:25.589Z,99.90
2023-02-28T03:14:18.274Z,99.90
2023-02-28T03:17:18.043Z,99.90
2023-02-28T03:20:08.442Z,99.90
2023-02-28T03:22:53.405Z,99.90
2023-02-28T03:25:47.693Z,99.90
2023-02-28T03:28:42.727Z,99.90
2023-02-28T03:31:40.709Z,99.90
2023-02-28T03:34:17.591Z,99.90
2023-02-28T03:36:49.776Z,99.90
2023-02-28T03:39:32.146Z,99.90
2023-02-28T03:42:05.529Z,99.90
2023-02-28T03:44:51.055Z,99.90
2023-02-28T03:47:33.001Z,99.90
2023-02-28T03:50:19.470Z,99.90
2023-02-28T03:53:23.873Z,99.90
2023-02-28T03:55:57.988Z,99.90
2023-02-28T03:58:43.841Z,99.90
2023-02-28T04:01:21.041Z,99.90
2023-02-28T04:03:47.798Z,99.90
2023-02-28T04:06:19.062Z,99.90
2023-02-28T04:08:46.126Z,99.90
2023-02-28T04:11:31.025Z,99.90
2023-02-28T04:13:57.828Z,99.90
2023-02-28T04:16:34.497Z,99.90
2023-02-28T04:19:06.194Z,99.90
2023-02-28T04:21:35.567Z,99.90
2023-02-28T04:24:02.618Z,99.90
2023-02-28T04:26:34.633Z,99.90
2023-02-28T04:29:02.138Z,99.90
2023-02-28T04:31:31.440Z,99.90
2023-02-28T04:34:01.032Z,99.90
2023-02-28T04:36:27.977Z,99.90
2023-02-28T04:38:57.790Z,99.90
2023-02-28T04:41:29.628Z,99.90
2023-02-28T04:43:58.518Z,99.90
2023-02-28T04:46:25.364Z,99.90
2023-02-28T04:48:52.010Z,99.90
2023-02-28T04:51:20.683Z,99.90
2023-02-28T04:53:48.024Z,99.90
2023-02-28T04:56:16.838Z,99.90
2023-02-28T04:58:43.777Z,99.90
2023-02-28T05:01:48.711Z,99.90
2023-02-28T05:04:15.940Z,99.90
2023-02-28T05:06:42.703Z,99.90
2023-02-28T05:09:09.524Z,99.90
2023-02-28T05:11:39.671Z,99.90
2023-02-28T05:14:11.759Z,99.90
2023-02-28T05:16:38.721Z,99.90
2023-02-28T05:19:05.515Z,99.90
2023-02-28T05:21:50.045Z,99.90
2023-02-28T05:24:23.520Z,99.90
2023-02-28T05:26:54.629Z,99.90
2023-02-28T05:29:23.933Z,99.90
2023-02-28T05:31:51.402Z,99.90
2023-02-28T05:34:18.200Z,99.90
2023-02-28T05:36:47.714Z,99.90
2023-02-28T05:39:14.533Z,99.90
2023-02-28T05:41:44.555Z,99.90
2023-02-28T05:44:12.072Z,99.90
2023-02-28T05:46:41.223Z,99.90
2023-02-28T05:49:10.173Z,99.90
2023-02-28T05:51:40.542Z,99.90
2023-02-28T05:54:11.179Z,99.90
2023-02-28T05:56:40.894Z,99.90
2023-02-28T05:59:07.846Z,99.90
2023-02-28T06:01:36.321Z,99.90
2023-02-28T06:04:05.109Z,99.90
2023-02-28T06:06:31.820Z,99.90
2023-02-28T06:08:59.123Z,99.90
2023-02-28T06:11:29.371Z,99.90
2023-02-28T06:13:58.018Z,99.90
2023-02-28T06:16:25.537Z,99.90
2023-02-28T06:18:53.683Z,99.90
2023-02-28T06:21:20.362Z,99.90
2023-02-28T06:23:49.477Z,99.90
2023-02-28T06:26:20.708Z,99.90
2023-02-28T06:28:50.211Z,99.90
2023-02-28T06:31:18.791Z,99.90
2023-02-28T06:33:46.370Z,99.90
2023-02-28T06:36:17.293Z,99.90
2023-02-28T06:38:46.897Z,99.90
2023-02-28T06:41:13.609Z,99.90
2023-02-28T06:43:45.092Z,99.90
2023-02-28T06:46:14.799Z,99.90
2023-02-28T06:48:44.660Z,99.90
2023-02-28T06:51:15.077Z,99.90
2023-02-28T06:53:44.056Z,99.90
2023-02-28T06:56:13.605Z,99.90
2023-02-28T06:58:41.133Z,99.90
2023-02-28T07:01:11.052Z,99.90
2023-02-28T07:03:41.015Z,99.90
2023-02-28T07:06:10.392Z,99.90
2023-02-28T07:08:37.087Z,99.90
2023-02-28T07:11:06.799Z,99.90
2023-02-28T07:13:34.845Z,99.90
2023-02-28T07:16:04.390Z,99.90
2023-02-28T07:18:31.576Z,99.90
2023-02-28T07:20:58.440Z,99.90
2023-02-28T07:23:25.249Z,99.90
2023-02-28T07:25:54.355Z,99.90
2023-02-28T07:28:23.306Z,99.90
2023-02-28T07:30:50.437Z,99.90
2023-02-28T07:33:17.330Z,99.90
2023-02-28T07:35:44.770Z,99.90
2023-02-28T07:38:11.751Z,99.90
2023-02-28T07:40:38.552Z,99.90
2023-02-28T07:43:05.339Z,99.90
2023-02-28T07:45:35.369Z,99.90
2023-02-28T07:48:03.053Z,99.90
2023-02-28T07:50:32.519Z,99.90
2023-02-28T07:53:02.737Z,99.90
2023-02-28T07:55:29.414Z,99.90
2023-02-28T07:57:59.622Z,99.90
2023-02-28T08:00:26.462Z,99.90
2023-02-28T08:02:55.443Z,99.90
2023-02-28T08:05:22.537Z,99.90
2023-02-28T08:07:50.780Z,99.90
2023-02-28T08:10:17.535Z,99.90
2023-02-28T08:12:44.177Z,99.90
2023-02-28T08:15:11.303Z,99.90
2023-02-28T08:17:38.354Z,99.90
2023-02-28T08:20:08.269Z,99.90
2023-02-28T08:22:35.000Z,99.90
2023-02-28T08:25:01.685Z,99.90
2023-02-28T08:27:28.448Z,99.90
2023-02-28T08:29:55.226Z,99.90
2023-02-28T08:32:29.877Z,99.90
2023-02-28T08:34:57.338Z,99.90
2023-02-28T08:37:26.176Z,99.90
2023-02-28T08:39:56.116Z,99.90
2023-02-28T08:42:24.577Z,99.90
2023-02-28T08:44:51.347Z,99.90
2023-02-28T08:47:20.609Z,99.90
2023-02-28T08:49:47.300Z,99.90
2023-02-28T08:52:14.015Z,99.90
2023-02-28T08:54:40.794Z,99.90
2023-02-28T08:57:07.689Z,99.90
2023-02-28T08:59:34.550Z,99.90
2023-02-28T09:02:01.295Z,99.90
2023-02-28T09:04:32.044Z,99.90
2023-02-28T09:06:58.874Z,99.90
2023-02-28T09:09:25.571Z,99.90
2023-02-28T09:11:52.320Z,99.90
2023-02-28T09:14:19.040Z,99.90
2023-02-28T09:16:45.945Z,99.90
2023-02-28T09:19:14.209Z,99.90
2023-02-28T09:21:41.105Z,99.90
2023-02-28T09:24:08.489Z,99.90
2023-02-28T09:26:42.667Z,99.90
2023-02-28T09:29:17.684Z,99.90
2023-02-28T09:31:44.806Z,99.90
2023-02-28T09:34:11.657Z,99.90
2023-02-28T09:36:45.196Z,99.90
2023-02-28T09:39:13.862Z,99.90
2023-02-28T09:41:50.956Z,99.60
2023-02-28T09:44:37.485Z,98.90
2023-02-28T09:47:10.105Z,98.50
2023-02-28T09:49:47.184Z,96.60
2023-02-28T09:52:25.096Z,95.30
2023-02-28T09:54:52.021Z,94.60
2023-02-28T09:57:40.716Z,93.20
2023-02-28T10:00:25.688Z,91.60
2023-02-28T10:03:19.475Z,90.30
2023-02-28T10:05:56.830Z,89.50
2023-02-28T10:08:42.410Z,86.80
2023-02-28T10:11:13.498Z,85.20
2023-02-28T10:14:02.646Z,82.00
2023-02-28T10:16:48.862Z,78.30
2023-02-28T10:19:38.393Z,73.50
2023-02-28T10:22:17.566Z,69.50
2023-02-28T10:24:47.446Z,63.50
2023-02-28T10:27:25.611Z,62.00
2023-02-28T10:30:01.468Z,62.90
2023-02-28T10:32:33.962Z,62.00
2023-02-28T10:35:18.960Z,58.00
2023-02-28T10:37:49.900Z,57.50
2023-02-28T10:40:31.964Z,56.30
2023-02-28T10:43:05.911Z,55.20
2023-02-28T10:45:36.328Z,57.00
2023-02-28T10:48:23.976Z,55.40
2023-02-28T10:50:55.835Z,54.50
2023-02-28T10:53:30.135Z,53.40
2023-02-28T10:56:07.401Z,51.50
2023-02-28T10:58:50.801Z,51.60
2023-02-28T11:01:36.278Z,50.60
2023-02-28T11:04:03.970Z,48.70
2023-02-28T11:06:35.246Z,47.20
2023-02-28T11:09:04.643Z,47.90
2023-02-28T11:11:42.934Z,47.30
2023-02-28T11:14:39.108Z,46.50
2023-02-28T11:17:29.744Z,47.00
2023-02-28T11:20:04.403Z,48.70
2023-02-28T11:22:33.911Z,50.70
2023-02-28T11:25:22.605Z,51.60
2023-02-28T11:27:54.910Z,51.50
2023-02-28T11:30:35.110Z,51.50
2023-02-28T11:33:21.593Z,52.60
2023-02-28T11:35:51.608Z,51.20
2023-02-28T11:38:23.174Z,51.30
2023-02-28T11:41:00.850Z,52.10
2023-02-28T11:43:30.631Z,52.30
2023-02-28T11:46:03.271Z,52.00
2023-02-28T11:49:11.433Z,50.90
2023-02-28T11:51:53.034Z,49.30
2023-02-28T11:54:29.266Z,46.70
2023-02-28T11:57:10.355Z,46.10
2023-02-28T11:59:45.545Z,45.50
2023-02-28T12:02:26.167Z,45.10
2023-02-28T12:05:14.013Z,43.70
2023-02-28T12:07:46.845Z,43.40
2023-02-28T12:10:27.065Z,44.50
2023-02-28T12:13:09.681Z,45.00
2023-02-28T12:16:07.061Z,44.40
2023-02-28T12:19:15.543Z,43.60
2023-02-28T12:21:57.772Z,43.70
2023-02-28T12:24:42.589Z,43.70
2023-02-28T12:27:16.477Z,43.30
2023-02-28T12:30:26.528Z,43.30
2023-02-28T12:33:09.129Z,43.60
2023-02-28T12:35:35.813Z,43.50
2023-02-28T12:38:14.285Z,43.40
2023-02-28T12:41:03.056Z,44.00
2023-02-28T12:43:41.189Z,43.30
2023-02-28T12:46:22.550Z,42.90
2023-02-28T12:48:57.771Z,41.90
2023-02-28T12:51:28.692Z,41.20
2023-02-28T12:54:25.366Z,41.20
2023-02-28T12:57:16.422Z,41.00
2023-02-28T12:59:52.878Z,40.30
2023-02-28T13:02:54.135Z,39.20
2023-02-28T13:06:17.373Z,38.80
2023-02-28T13:09:09.206Z,37.70
2023-02-28T13:11:46.135Z,37.70
2023-02-28T13:14:32.882Z,36.80
2023-02-28T13:17:13.560Z,36.90
2023-02-28T13:19:43.777Z,37.00
2023-02-28T13:22:40.616Z,35.90
2023-02-28T13:25:26.111Z,35.60
2023-02-28T13:27:57.907Z,36.00
2023-02-28T13:30:57.278Z,37.20
2023-02-28T13:33:35.554Z,36.90
2023-02-28T13:36:08.315Z,36.90
2023-02-28T13:38:42.353Z,36.50
2023-02-28T13:41:36.892Z,36.30
2023-02-28T13:44:15.892Z,35.50
2023-02-28T13:46:51.896Z,35.60
2023-02-28T13:49:25.802Z,34.90
2023-02-28T13:52:14.910Z,34.80
2023-02-28T13:55:11.890Z,35.70
2023-02-28T13:57:52.635Z,36.40
2023-02-28T14:00:38.260Z,36.50
2023-02-28T14:03:32.225Z,36.20
2023-02-28T14:06:34.367Z,36.00
2023-02-28T14:09:19.097Z,35.70
2023-02-28T14:11:50.297Z,35.80
2023-02-28T14:14:38.764Z,35.90
2023-02-28T14:17:15.627Z,36.30
2023-02-28T14:19:51.026Z,36.60
2023-02-28T14:22:39.431Z,36.60
2023-02-28T14:25:20.927Z,36.40
2023-02-28T14:28:21.766Z,36.60
2023-02-28T14:31:08.838Z,36.30
2023-02-28T14:34:00.610Z,36.30
2023-02-28T14:36:37.164Z,36.30
2023-02-28T14:39:33.856Z,36.70
2023-02-28T14:42:05.612Z,36.40
2023-02-28T14:44:33.112Z,36.40
2023-02-28T14:47:07.037Z,36.80
2023-02-28T14:49:38.963Z,36.80
2023-02-28T14:52:10.746Z,37.50
2023-02-28T14:54:39.221Z,37.50
2023-02-28T14:57:06.523Z,38.40
2023-02-28T14:59:40.100Z,38.20
2023-02-28T15:02:19.370Z,38.40
2023-02-28T15:04:55.638Z,38.80
2023-02-28T15:07:29.528Z,39.20
2023-02-28T15:10:17.868Z,39.90
2023-02-28T15:12:54.876Z,40.40
2023-02-28T15:15:28.229Z,40.50
2023-02-28T15:18:06.740Z,41.10
2023-02-28T15:20:34.604Z,40.60
2023-02-28T15:23:02.166Z,40.10
2023-02-28T15:25:29.291Z,40.20
2023-02-28T15:27:58.592Z,40.60
2023-02-28T15:30:31.367Z,41.00
2023-02-28T15:33:25.956Z,41.40
2023-02-28T15:36:03.988Z,42.40
2023-02-28T15:38:36.326Z,43.30
2023-02-28T15:41:09.214Z,43.60
2023-02-28T15:43:40.225Z,44.10
2023-02-28T15:46:16.895Z,44.60
2023-02-28T15:48:56.945Z,44.90
2023-02-28T15:51:35.075Z,45.40
2023-02-28T15:54:10.179Z,45.60
2023-02-28T15:56:43.803Z,45.70
2023-02-28T15:59:18.614Z,45.50
2023-02-28T16:01:45.660Z,45.90
2023-02-28T16:04:18.168Z,46.10
2023-02-28T16:06:46.574Z,46.30
2023-02-28T16:09:18.928Z,46.30
2023-02-28T16:11:49.105Z,46.40
2023-02-28T16:14:28.420Z,46.10
2023-02-28T16:17:05.566Z,46.00
2023-02-28T16:19:34.675Z,45.70
2023-02-28T16:22:02.125Z,45.50
2023-02-28T16:24:29.069Z,45.50
2023-02-28T16:27:00.936Z,45.40
2023-02-28T16:29:39.800Z,45.00
2023-02-28T16:32:11.640Z,45.10
2023-02-28T16:34:38.416Z,44.50
2023-02-28T16:37:12.165Z,44.40
2023-02-28T16:39:38.865Z,44.60
2023-02-28T16:42:05.690Z,44.70
2023-02-28T16:44:37.353Z,45.60
2023-02-28T16:47:05.243Z,47.00
2023-02-28T16:49:32.291Z,48.40
2023-02-28T16:52:01.326Z,49.90
2023-02-28T16:54:30.476Z,51.10
2023-02-28T16:56:57.317Z,52.20
2023-02-28T16:59:26.006Z,53.10
2023-02-28T17:01:58.649Z,53.90
2023-02-28T17:04:29.801Z,54.80
2023-02-28T17:06:56.547Z,55.50
2023-02-28T17:09:40.121Z,56.30
2023-02-28T17:12:09.074Z,56.90
2023-02-28T17:14:36.328Z,57.60
2023-02-28T17:17:03.077Z,58.30
2023-02-28T17:19:29.790Z,58.90
2023-02-28T17:21:59.419Z,59.20
2023-02-28T17:24:31.161Z,59.80
2023-02-28T17:27:00.955Z,60.40
2023-02-28T17:29:27.793Z,61.00
2023-02-28T17:31:54.863Z,61.50
2023-02-28T17:34:22.506Z,61.80
2023-02-28T17:36:51.830Z,62.20
2023-02-28T17:39:24.941Z,62.70
2023-02-28T17:41:56.203Z,63.20
2023-02-28T17:44:24.805Z,63.60
2023-02-28T17:46:54.780Z,64.00
2023-02-28T17:49:26.801Z,64.30
2023-02-28T17:51:53.525Z,64.90
2023-02-28T17:54:20.877Z,65.30
2023-02-28T17:56:47.784Z,65.70
2023-02-28T17:59:17.119Z,65.90
2023-02-28T18:01:46.465Z,66.00
2023-02-28T18:04:13.392Z,66.50
2023-02-28T18:06:50.613Z,67.10
2023-02-28T18:09:22.990Z,67.50
2023-02-28T18:11:51.734Z,67.90
2023-02-28T18:14:20.500Z,68.40
2023-02-28T18:16:47.254Z,68.70
2023-02-28T18:19:17.432Z,69.00
2023-02-28T18:21:46.363Z,69.40
2023-02-28T18:24:14.019Z,69.60
2023-02-28T18:26:41.434Z,70.30
2023-02-28T18:29:08.849Z,70.40
2023-02-28T18:31:35.990Z,70.60
2023-02-28T18:34:05.097Z,70.80
2023-02-28T18:36:32.246Z,71.10
2023-02-28T18:39:00.066Z,71.20
2023-02-28T18:41:28.945Z,71.50
2023-02-28T18:43:55.788Z,71.80
2023-02-28T18:46:22.635Z,72.30
2023-02-28T18:48:51.778Z,72.60
2023-02-28T18:51:24.302Z,72.80
2023-02-28T18:53:51.307Z,73.10
2023-02-28T18:56:20.633Z,73.50
2023-02-28T18:58:47.628Z,73.80
2023-02-28T19:01:18.770Z,74.20
2023-02-28T19:03:46.141Z,74.70
2023-02-28T19:06:13.064Z,75.00
2023-02-28T19:08:39.944Z,75.40
2023-02-28T19:11:15.570Z,75.80
2023-02-28T19:13:43.018Z,76.10
2023-02-28T19:16:11.201Z,76.40
2023-02-28T19:18:39.634Z,76.60
2023-02-28T19:21:14.269Z,76.80
2023-02-28T19:23:42.253Z,77.20
2023-02-28T19:26:18.335Z,77.60
2023-02-28T19:28:45.334Z,77.70
2023-02-28T19:31:16.986Z,78.10
2023-02-28T19:33:46.692Z,78.60
2023-02-28T19:36:17.374Z,78.70
2023-02-28T19:38:47.107Z,79.10
2023-02-28T19:41:16.151Z,79.50
2023-02-28T19:43:43.155Z,79.80
2023-02-28T19:46:12.036Z,80.00
2023-02-28T19:48:39.288Z,80.20
2023-02-28T19:51:10.225Z,80.40
2023-02-28T19:53:39.276Z,80.70
2023-02-28T19:56:06.874Z,80.90
2023-02-28T19:58:33.861Z,81.20
2023-02-28T20:01:21.389Z,81.30
2023-02-28T20:03:56.664Z,81.60
2023-02-28T20:06:23.451Z,82.00
2023-02-28T20:08:51.848Z,82.40
2023-02-28T20:11:21.104Z,82.60
2023-02-28T20:13:47.723Z,82.90
2023-02-28T20:16:15.720Z,83.00
2023-02-28T20:18:44.418Z,83.20
2023-02-28T20:21:13.030Z,83.80
2023-02-28T20:23:40.753Z,84.10
2023-02-28T20:26:10.939Z,84.40
2023-02-28T20:28:38.199Z,84.70
2023-02-28T20:31:16.724Z,85.10
2023-02-28T20:33:48.137Z,85.30
2023-02-28T20:36:15.814Z,85.60
2023-02-28T20:38:43.353Z,85.80
2023-02-28T20:41:12.356Z,86.00
2023-02-28T20:43:42.245Z,86.20
2023-02-28T20:46:09.800Z,86.30
2023-02-28T20:48:37.501Z,86.80
2023-02-28T20:51:05.129Z,87.40
2023-02-28T20:53:33.675Z,87.70
2023-02-28T20:56:11.158Z,88.10
2023-02-28T20:58:38.243Z,88.50
2023-02-28T21:01:17.677Z,88.80
2023-02-28T21:03:49.987Z,89.40
2023-02-28T21:06:18.465Z,89.50
2023-02-28T21:08:45.739Z,89.90
2023-02-28T21:11:17.709Z,90.00
2023-02-28T21:13:45.837Z,90.20
2023-02-28T21:16:19.240Z,90.30
2023-02-28T21:18:46.100Z,90.40
2023-02-28T21:21:16.024Z,90.40
2023-02-28T21:23:43.114Z,90.50
2023-02-28T21:26:14.109Z,90.60
2023-02-28T21:28:44.157Z,90.70
2023-02-28T21:31:17.007Z,90.80
2023-02-28T21:33:47.780Z,90.90
2023-02-28T21:36:17.838Z,91.10
2023-02-28T21:38:46.122Z,91.20
2023-02-28T21:41:19.000Z,91.30
2023-02-28T21:43:48.901Z,91.40
2023-02-28T21:46:21.734Z,91.50
2023-02-28T21:48:51.648Z,91.60
2023-02-28T21:51:32.913Z,91.60
2023-02-28T21:54:02.903Z,91.70
2023-02-28T21:56:35.032Z,91.80
2023-02-28T21:59:02.149Z,91.90
2023-02-28T22:01:34.841Z,92.10
2023-02-28T22:04:03.095Z,92.20
2023-02-28T22:06:32.621Z,92.30
2023-02-28T22:09:02.139Z,92.50
2023-02-28T22:11:29.487Z,92.60
2023-02-28T22:13:57.890Z,92.80
2023-02-28T22:16:31.254Z,93.00
2023-02-28T22:19:03.221Z,93.10
2023-02-28T22:21:32.194Z,93.30
2023-02-28T22:23:58.986Z,93.40
2023-02-28T22:26:25.939Z,93.60
2023-02-28T22:28:52.732Z,93.60
2023-02-28T22:31:27.803Z,93.80
2023-02-28T22:33:59.331Z,94.10
2023-02-28T22:36:28.805Z,94.10
2023-02-28T22:38:57.459Z,94.20
2023-02-28T22:41:28.026Z,94.30
2023-02-28T22:43:57.693Z,94.40
2023-02-28T22:46:26.093Z,94.60
2023-02-28T22:48:53.773Z,94.60
2023-02-28T22:51:25.443Z,94.70
2023-02-28T22:53:54.067Z,94.90
2023-02-28T22:56:23.127Z,95.10
2023-02-28T22:58:55.792Z,95.10
2023-02-28T23:01:25.035Z,95.20
2023-02-28T23:03:52.457Z,95.30
2023-02-28T23:06:42.645Z,95.50
2023-02-28T23:09:18.687Z,95.60
2023-02-28T23:11:48.434Z,95.60
2023-02-28T23:14:17.146Z,95.80
2023-02-28T23:16:52.308Z,96.00
2023-02-28T23:19:22.090Z,96.20
2023-02-28T23:21:49.140Z,96.50
2023-02-28T23:24:18.707Z,96.70
2023-02-28T23:26:49.073Z,96.90
2023-02-28T23:29:17.653Z,97.00
2023-02-28T23:31:45.219Z,97.20
2023-02-28T23:34:12.756Z,97.40
2023-02-28T23:36:45.883Z,97.50
2023-02-28T23:39:15.657Z,97.70
2023-02-28T23:41:42.298Z,97.90
2023-02-28T23:44:13.585Z,98.00
2023-02-28T23:46:40.618Z,98.20
2023-02-28T23:49:07.279Z,98.40
2023-02-28T23:51:36.766Z,98.50
2023-02-28T23:54:07.259Z,98.70
2023-02-28T23:56:34.146Z,99.00
2023-02-28T23:59:00.894Z,99.20
